createdAt,value
2023-01-05T00:01:57.217Z,100110.09
2023-01-05T00:04:26.886Z,100104.09
2023-01-05T00:06:56.434Z,100103.28
2023-01-05T00:09:25.863Z,100091.44
2023-01-05T00:12:07.761Z,100101.38
2023-01-05T00:14:52.352Z,100108.22
2023-01-05T00:17:35.419Z,100109.22
2023-01-05T00:20:18.587Z,100120.50
2023-01-05T00:22:50.174Z,100113.63
2023-01-05T00:25:21.651Z,100130.69
2023-01-05T00:27:52.232Z,100144.47
2023-01-05T00:30:26.173Z,100134.16
2023-01-05T00:32:55.909Z,100143.38
2023-01-05T00:35:26.043Z,100145.00
2023-01-05T00:37:55.536Z,100164.75
2023-01-05T00:40:25.451Z,100155.44
2023-01-05T00:42:54.903Z,100165.56
2023-01-05T00:45:27.058Z,100151.91
2023-01-05T00:47:56.586Z,100170.63
2023-01-05T00:50:26.306Z,100185.16
2023-01-05T00:52:55.825Z,100179.94
2023-01-05T00:55:25.421Z,100190.13
2023-01-05T00:57:54.916Z,100192.84
2023-01-05T01:00:27.030Z,100193.72
2023-01-05T01:02:56.613Z,100213.25
2023-01-05T01:05:26.265Z,100200.47
2023-01-05T01:07:55.866Z,100199.59
2023-01-05T01:10:25.492Z,100211.50
2023-01-05T01:12:55.961Z,100214.78
2023-01-05T01:15:28.072Z,100218.78
2023-01-05T01:17:57.644Z,100213.56
2023-01-05T01:20:27.162Z,100212.84
2023-01-05T01:22:56.710Z,100218.50
2023-01-05T01:25:26.272Z,100223.84
2023-01-05T01:27:55.690Z,100226.97
2023-01-05T01:30:27.927Z,100222.81
2023-01-05T01:32:57.482Z,100232.72
2023-01-05T01:35:26.984Z,100236.75
2023-01-05T01:37:56.419Z,100238.81
2023-01-05T01:40:26.000Z,100262.25
2023-01-05T01:42:55.542Z,100261.31
2023-01-05T01:45:29.824Z,100279.69
2023-01-05T01:48:00.705Z,100282.06
2023-01-05T01:50:33.522Z,100290.84
2023-01-05T01:53:06.817Z,100309.31
2023-01-05T01:55:37.620Z,100322.19
2023-01-05T01:58:11.410Z,100314.75
2023-01-05T02:00:43.986Z,100292.13
2023-01-05T02:03:13.668Z,100304.31
2023-01-05T02:05:43.161Z,100318.84
2023-01-05T02:08:13.653Z,100307.06
2023-01-05T02:10:58.242Z,100313.84
2023-01-05T02:13:41.325Z,100312.41
2023-01-05T02:16:19.720Z,100289.81
2023-01-05T02:19:06.564Z,100296.50
2023-01-05T02:21:41.047Z,100295.00
2023-01-05T02:24:35.639Z,100293.25
2023-01-05T02:27:28.684Z,100290.56
2023-01-05T02:30:36.043Z,100287.81
2023-01-05T02:33:15.494Z,100274.06
2023-01-05T02:35:50.949Z,100286.16
2023-01-05T02:38:24.356Z,100281.28
2023-01-05T02:40:58.224Z,100269.75
2023-01-05T02:43:27.726Z,100275.13
2023-01-05T02:45:57.268Z,100285.13
2023-01-05T02:48:29.471Z,100282.03
2023-01-05T02:51:01.592Z,100293.81
2023-01-05T02:53:34.226Z,100292.03
2023-01-05T02:56:05.769Z,100287.88
2023-01-05T02:58:37.118Z,100289.63
2023-01-05T03:01:10.264Z,100300.63
2023-01-05T03:03:45.156Z,100306.78
2023-01-05T03:06:17.639Z,100311.75
2023-01-05T03:08:52.048Z,100310.78
2023-01-05T03:11:34.088Z,100317.97
2023-01-05T03:14:08.294Z,100315.91
2023-01-05T03:16:39.800Z,100329.53
2023-01-05T03:19:27.425Z,100334.25
2023-01-05T03:22:10.613Z,100342.66
2023-01-05T03:24:53.502Z,100342.78
2023-01-05T03:27:35.915Z,100356.81
2023-01-05T03:30:18.578Z,100351.69
2023-01-05T03:33:04.374Z,100373.06
2023-01-05T03:35:38.131Z,100382.38
2023-01-05T03:38:18.089Z,100365.88
2023-01-05T03:40:48.477Z,100379.72
2023-01-05T03:43:18.094Z,100383.03
2023-01-05T03:45:49.388Z,100396.81
2023-01-05T03:48:18.890Z,100375.50
2023-01-05T03:50:51.223Z,100381.34
2023-01-05T03:53:20.630Z,100386.47
2023-01-05T03:55:50.124Z,100376.94
2023-01-05T03:58:19.540Z,100384.47
2023-01-05T04:00:48.981Z,100398.75
2023-01-05T04:03:18.446Z,100387.53
2023-01-05T04:05:47.954Z,100387.47
2023-01-05T04:08:19.954Z,100383.59
2023-01-05T04:10:49.396Z,100405.00
2023-01-05T04:13:18.894Z,100395.56
2023-01-05T04:15:48.442Z,100403.75
2023-01-05T04:18:18.001Z,100396.81
2023-01-05T04:20:47.649Z,100389.84
2023-01-05T04:23:17.087Z,100404.91
2023-01-05T04:25:49.337Z,100409.66
2023-01-05T04:28:18.945Z,100414.78
2023-01-05T04:30:51.640Z,100411.00
2023-01-05T04:33:21.314Z,100408.00
2023-01-05T04:35:51.214Z,100390.88
2023-01-05T04:38:20.740Z,100401.94
2023-01-05T04:40:56.193Z,100397.44
2023-01-05T04:43:25.639Z,100408.34
2023-01-05T04:45:55.112Z,100401.59
2023-01-05T04:48:24.637Z,100402.31
2023-01-05T04:50:57.708Z,100391.22
2023-01-05T04:53:27.354Z,100398.00
2023-01-05T04:55:59.552Z,100413.63
2023-01-05T04:58:29.085Z,100405.06
2023-01-05T05:00:58.580Z,100399.84
2023-01-05T05:03:32.775Z,100410.72
2023-01-05T05:06:02.720Z,100411.69
2023-01-05T05:08:32.241Z,100411.69
2023-01-05T05:11:04.372Z,100410.47
2023-01-05T05:13:33.915Z,100402.88
2023-01-05T05:16:03.492Z,100420.97
2023-01-05T05:18:32.965Z,100375.97
2023-01-05T05:21:02.387Z,100406.97
2023-01-05T05:23:31.909Z,100392.97
2023-01-05T05:26:04.164Z,100400.75
2023-01-05T05:28:33.676Z,100404.97
2023-01-05T05:31:03.266Z,100400.00
2023-01-05T05:33:32.841Z,100405.13
2023-01-05T05:36:02.333Z,100399.13
2023-01-05T05:38:31.760Z,100397.13
2023-01-05T05:41:03.891Z,100401.84
2023-01-05T05:43:33.405Z,100405.78
2023-01-05T05:46:02.972Z,100405.38
2023-01-05T05:48:32.521Z,100415.56
2023-01-05T05:51:02.040Z,100411.66
2023-01-05T05:53:31.502Z,100425.94
2023-01-05T05:56:01.049Z,100417.16
2023-01-05T05:58:33.130Z,100421.38
2023-01-05T06:01:02.574Z,100427.56
2023-01-05T06:03:32.166Z,100418.44
2023-01-05T06:06:03.061Z,100436.38
2023-01-05T06:08:32.860Z,100451.19
2023-01-05T06:11:02.424Z,100444.31
2023-01-05T06:13:34.817Z,100444.53
2023-01-05T06:16:04.398Z,100457.53
2023-01-05T06:18:33.995Z,100451.53
2023-01-05T06:21:03.447Z,100449.94
2023-01-05T06:23:33.005Z,100463.47
2023-01-05T06:26:02.541Z,100456.75
2023-01-05T06:28:34.657Z,100465.31
2023-01-05T06:31:04.233Z,100460.91
2023-01-05T06:33:33.772Z,100472.91
2023-01-05T06:36:03.292Z,100479.81
2023-01-05T06:38:32.755Z,100492.72
2023-01-05T06:41:02.234Z,100493.41
2023-01-05T06:43:34.607Z,100484.78
2023-01-05T06:46:04.257Z,100502.78
2023-01-05T06:48:33.761Z,100501.19
2023-01-05T06:51:03.268Z,100526.13
2023-01-05T06:53:32.800Z,100537.16
2023-01-05T06:56:02.225Z,100534.69
2023-01-05T06:58:34.236Z,100521.84
2023-01-05T07:01:03.863Z,100537.16
2023-01-05T07:03:33.563Z,100539.72
2023-01-05T07:06:04.850Z,100550.16
2023-01-05T07:08:36.239Z,100550.28
2023-01-05T07:11:05.902Z,100545.13
2023-01-05T07:13:37.927Z,100558.00
2023-01-05T07:16:08.317Z,100569.22
2023-01-05T07:18:37.851Z,100578.69
2023-01-05T07:21:07.586Z,100594.88
2023-01-05T07:23:37.948Z,100596.63
2023-01-05T07:26:07.818Z,100602.97
2023-01-05T07:28:40.400Z,100623.56
2023-01-05T07:31:10.206Z,100622.75
2023-01-05T07:33:40.489Z,100631.44
2023-01-05T07:36:11.046Z,100633.19
2023-01-05T07:38:40.588Z,100639.19
2023-01-05T07:41:10.674Z,100651.31
2023-01-05T07:43:42.778Z,100640.25
2023-01-05T07:46:12.370Z,100645.38
2023-01-05T07:48:41.851Z,100666.63
2023-01-05T07:51:13.308Z,100677.59
2023-01-05T07:53:44.592Z,100657.06
2023-01-05T07:56:14.953Z,100660.25
2023-01-05T07:58:47.042Z,100646.94
2023-01-05T08:01:18.494Z,100645.44
2023-01-05T08:03:48.138Z,100650.97
2023-01-05T08:06:19.708Z,100666.63
2023-01-05T08:08:49.632Z,100666.88
2023-01-05T08:11:21.884Z,100667.75
2023-01-05T08:14:08.959Z,100684.63
2023-01-05T08:16:38.428Z,100693.13
2023-01-05T08:19:11.011Z,100690.94
2023-01-05T08:21:41.182Z,100686.44
2023-01-05T08:24:10.827Z,100656.19
2023-01-05T08:26:40.339Z,100626.53
2023-01-05T08:29:12.495Z,100619.25
2023-01-05T08:31:42.471Z,100584.72
2023-01-05T08:34:11.971Z,100576.78
2023-01-05T08:36:41.689Z,100563.06
2023-01-05T08:39:13.289Z,100552.03
2023-01-05T08:41:43.724Z,100526.38
2023-01-05T08:44:17.278Z,100514.44
2023-01-05T08:46:46.831Z,100511.00
2023-01-05T08:49:17.306Z,100527.22
2023-01-05T08:51:46.880Z,100522.75
2023-01-05T08:54:16.486Z,100540.66
2023-01-05T08:56:46.127Z,100545.00
2023-01-05T08:59:18.266Z,100544.88
2023-01-05T09:01:48.160Z,100552.13
2023-01-05T09:04:17.886Z,100565.88
2023-01-05T09:06:47.582Z,100607.28
2023-01-05T09:09:17.049Z,100614.94
2023-01-05T09:11:46.507Z,100640.03
2023-01-05T09:14:18.870Z,100655.66
2023-01-05T09:19:37.961Z,100670.19
2023-01-05T09:22:07.574Z,100680.44
2023-01-05T09:24:37.266Z,100700.09
2023-01-05T09:27:07.795Z,100700.88
2023-01-05T09:29:39.876Z,100698.94
2023-01-05T09:32:11.528Z,100724.97
2023-01-05T09:34:41.122Z,100726.28
2023-01-05T09:37:10.691Z,100735.44
2023-01-05T09:39:40.218Z,100752.66
2023-01-05T09:42:10.279Z,100761.50
2023-01-05T09:44:44.320Z,100772.91
2023-01-05T09:47:16.927Z,100788.63
2023-01-05T09:49:47.113Z,100792.88
2023-01-05T09:52:16.783Z,100790.00
2023-01-05T09:54:46.277Z,100796.44
2023-01-05T09:57:19.882Z,100806.75
2023-01-05T09:59:53.554Z,100816.38
2023-01-05T10:02:31.762Z,100825.56
2023-01-05T10:05:02.219Z,100841.19
2023-01-05T10:07:37.451Z,100836.09
2023-01-05T10:10:15.562Z,100851.22
2023-01-05T10:13:00.271Z,100851.13
2023-01-05T10:15:35.970Z,100850.72
2023-01-05T10:18:12.266Z,100866.59
2023-01-05T10:20:48.414Z,100867.16
2023-01-05T10:23:27.990Z,100873.78
2023-01-05T10:26:00.965Z,100884.50
2023-01-05T10:28:37.163Z,100895.53
2023-01-05T10:31:15.538Z,100901.16
2023-01-05T10:33:56.651Z,100915.78
2023-01-05T10:39:34.543Z,100929.75
2023-01-05T10:42:08.862Z,100922.88
2023-01-05T10:44:50.132Z,100934.47
2023-01-05T10:47:22.657Z,100942.53
2023-01-05T10:49:52.282Z,100950.03
2023-01-05T10:52:23.630Z,100956.13
2023-01-05T10:54:55.605Z,100965.38
2023-01-05T10:57:40.348Z,100962.34
2023-01-05T11:00:18.293Z,100973.66
2023-01-05T11:02:53.963Z,100974.06
2023-01-05T11:05:30.290Z,100974.28
2023-01-05T11:08:01.949Z,100986.84
2023-01-05T11:10:32.941Z,100988.22
2023-01-05T11:13:07.791Z,100992.25
2023-01-05T11:15:44.103Z,100992.38
2023-01-05T11:18:27.995Z,101005.16
2023-01-05T11:21:15.313Z,100997.28
2023-01-05T11:23:46.261Z,100994.72
2023-01-05T11:26:34.527Z,101000.81
2023-01-05T11:29:06.696Z,100999.25
2023-01-05T11:31:38.237Z,101011.75
2023-01-05T11:34:19.062Z,101005.31
2023-01-05T11:36:54.634Z,101013.78
2023-01-05T11:39:29.586Z,101013.66
2023-01-05T11:42:23.356Z,101018.91
2023-01-05T11:44:56.511Z,101018.31
2023-01-05T11:47:35.304Z,101017.66
2023-01-05T11:50:22.040Z,101020.31
2023-01-05T11:52:54.005Z,101011.75
2023-01-05T11:55:31.051Z,101015.97
2023-01-05T11:58:33.886Z,101024.47
2023-01-05T12:01:38.989Z,101028.19
2023-01-05T12:04:38.702Z,101037.94
2023-01-05T12:07:34.430Z,101037.88
2023-01-05T12:10:16.189Z,101039.16
2023-01-05T12:12:55.578Z,101054.06
2023-01-05T12:15:40.527Z,101059.38
2023-01-05T12:18:20.105Z,101049.66
2023-01-05T12:20:58.547Z,101057.63
2023-01-05T12:23:41.796Z,101074.00
2023-01-05T12:26:21.028Z,101079.81
2023-01-05T12:35:26.931Z,101109.53
2023-01-05T12:38:08.185Z,101110.09
2023-01-05T12:40:52.264Z,101112.00
2023-01-05T12:43:30.350Z,101141.06
2023-01-05T12:46:19.545Z,101151.72
2023-01-05T12:48:51.096Z,101171.44
2023-01-05T12:51:23.507Z,101184.66
2023-01-05T12:53:56.649Z,101196.50
2023-01-05T12:56:33.480Z,101201.13
2023-01-05T12:59:10.812Z,101224.31
2023-01-05T13:01:44.185Z,101233.47
2023-01-05T13:04:24.943Z,101246.97
2023-01-05T13:06:57.214Z,101263.88
2023-01-05T13:09:28.067Z,101268.25
2023-01-05T13:12:04.060Z,101278.28
2023-01-05T13:14:36.701Z,101284.97
2023-01-05T13:17:09.363Z,101292.88
2023-01-05T13:19:44.246Z,101303.22
2023-01-05T13:22:19.220Z,101294.06
2023-01-05T13:24:53.546Z,101304.53
2023-01-05T13:27:26.188Z,101305.91
2023-01-05T13:29:59.443Z,101302.03
2023-01-05T13:32:38.567Z,101310.50
2023-01-05T13:35:24.595Z,101317.09
2023-01-05T13:38:28.733Z,101323.69
2023-01-05T13:41:21.934Z,101315.75
2023-01-05T13:44:36.460Z,101322.56
2023-01-05T13:47:27.315Z,101319.34
2023-01-05T13:50:22.373Z,101312.16
2023-01-05T13:53:00.918Z,101319.09
2023-01-05T13:55:31.128Z,101313.63
2023-01-05T13:58:03.194Z,101320.56
2023-01-05T14:00:35.901Z,101322.88
2023-01-05T14:03:10.096Z,101325.94
2023-01-05T14:05:50.341Z,101333.38
2023-01-05T14:08:23.648Z,101349.75
2023-01-05T14:11:12.166Z,101346.44
2023-01-05T14:13:49.999Z,101342.72
2023-01-05T14:16:49.643Z,101362.97
2023-01-05T14:19:26.715Z,101366.31
2023-01-05T14:22:03.968Z,101359.06
2023-01-05T14:24:36.812Z,101371.00
2023-01-05T14:27:11.749Z,101370.34
2023-01-05T14:30:04.999Z,101367.00
2023-01-05T14:32:36.635Z,101382.06
2023-01-05T14:35:22.025Z,101381.34
2023-01-05T14:37:59.648Z,101384.81
2023-01-05T14:40:36.607Z,101373.09
2023-01-05T14:43:10.954Z,101391.03
2023-01-05T14:45:42.245Z,101394.81
2023-01-05T14:48:30.869Z,101400.06
2023-01-05T14:51:28.961Z,101403.84
2023-01-05T14:53:59.565Z,101401.47
2023-01-05T14:56:30.485Z,101404.50
2023-01-05T14:59:19.862Z,101405.50
2023-01-05T15:01:52.349Z,101402.88
2023-01-05T15:04:24.496Z,101394.38
2023-01-05T15:07:11.541Z,101391.72
2023-01-05T15:10:00.036Z,101391.72
2023-01-05T15:12:40.866Z,101401.16
2023-01-05T15:15:28.015Z,101400.06
2023-01-05T15:18:07.300Z,101406.78
2023-01-05T15:21:18.408Z,101416.59
2023-01-05T15:24:12.336Z,101411.03
2023-01-05T15:27:13.193Z,101403.09
2023-01-05T15:29:55.531Z,101386.94
2023-01-05T15:32:27.104Z,101395.97
2023-01-05T15:34:59.274Z,101405.34
2023-01-05T15:37:36.104Z,101406.53
2023-01-05T15:40:09.910Z,101395.06
2023-01-05T15:42:42.356Z,101404.00
2023-01-05T15:45:20.059Z,101399.78
2023-01-05T15:47:49.951Z,101410.69
2023-01-05T15:50:22.389Z,101402.88
2023-01-05T15:52:57.004Z,101404.09
2023-01-05T15:55:30.788Z,101391.47
2023-01-05T15:58:03.802Z,101398.19
2023-01-05T16:00:35.201Z,101400.78
2023-01-05T16:03:05.097Z,101390.63
2023-01-05T16:05:36.312Z,101393.97
2023-01-05T16:08:08.984Z,101389.53
2023-01-05T16:10:42.326Z,101381.03
2023-01-05T16:13:15.768Z,101388.22
2023-01-05T16:15:47.421Z,101380.63
2023-01-05T16:18:20.698Z,101377.53
2023-01-05T16:20:52.259Z,101364.84
2023-01-05T16:23:24.872Z,101365.31
2023-01-05T16:25:59.746Z,101364.19
2023-01-05T16:28:29.359Z,101359.41
2023-01-05T16:30:59.059Z,101348.50
2023-01-05T16:33:35.751Z,101348.16
2023-01-05T16:36:15.223Z,101347.16
2023-01-05T16:38:44.707Z,101336.13
2023-01-05T16:41:54.752Z,101319.22
2023-01-05T16:44:24.290Z,101318.56
2023-01-05T16:47:07.393Z,101311.63
2023-01-05T16:49:53.319Z,101317.00
2023-01-05T16:52:30.998Z,101311.78
2023-01-05T16:55:28.834Z,101302.53
2023-01-05T16:58:01.948Z,101302.09
2023-01-05T17:00:40.182Z,101303.94
2023-01-05T17:03:31.620Z,101311.38
2023-01-05T17:06:02.746Z,101303.53
2023-01-05T17:08:36.038Z,101291.88
2023-01-05T17:11:06.424Z,101313.53
2023-01-05T17:13:42.552Z,101319.84
2023-01-05T17:16:13.654Z,101334.69
2023-01-05T17:18:43.556Z,101341.88
2023-01-05T17:21:17.650Z,101342.78
2023-01-05T17:23:49.520Z,101333.91
2023-01-05T17:26:22.604Z,101330.56
2023-01-05T17:29:00.778Z,101323.75
2023-01-05T17:31:30.821Z,101321.88
2023-01-05T17:34:00.388Z,101311.75
2023-01-05T17:36:33.276Z,101311.63
2023-01-05T17:39:03.225Z,101312.72
2023-01-05T17:41:32.688Z,101317.53
2023-01-05T17:44:04.765Z,101315.53
2023-01-05T17:46:36.207Z,101316.50
2023-01-05T17:49:05.949Z,101321.88
2023-01-05T17:51:35.422Z,101324.22
2023-01-05T17:54:04.951Z,101313.44
2023-01-05T17:56:34.520Z,101315.41
2023-01-05T17:59:06.778Z,101300.03
2023-01-05T18:01:36.486Z,101300.72
2023-01-05T18:04:06.136Z,101306.19
2023-01-05T18:06:35.706Z,101299.06
2023-01-05T18:09:05.239Z,101297.38
2023-01-05T18:16:57.186Z,101306.78
2023-01-05T18:19:26.719Z,101313.47
2023-01-05T18:21:56.334Z,101312.44
2023-01-05T18:24:25.796Z,101310.56
2023-01-05T18:26:55.976Z,101300.78
2023-01-05T18:29:28.278Z,101295.66
2023-01-05T18:31:57.907Z,101303.78
2023-01-05T18:34:27.448Z,101294.97
2023-01-05T18:37:01.993Z,101275.78
2023-01-05T18:39:35.968Z,101281.06
2023-01-05T18:42:05.483Z,101278.66
2023-01-05T18:44:38.557Z,101292.72
2023-01-05T18:48:17.344Z,101245.66
2023-01-05T18:50:51.044Z,101260.19
2023-01-05T18:53:21.461Z,101249.34
2023-01-05T18:55:51.232Z,101254.31
2023-01-05T18:58:20.783Z,101260.16
2023-01-05T19:00:50.238Z,101276.22
2023-01-05T19:03:22.315Z,101281.78
2023-01-05T19:05:51.847Z,101274.75
2023-01-05T19:08:21.289Z,101280.75
2023-01-05T19:10:50.802Z,101280.09
2023-01-05T19:13:20.262Z,101282.31
2023-01-05T19:15:49.730Z,101287.44
2023-01-05T19:18:21.822Z,101287.66
2023-01-05T19:20:59.892Z,101290.69
2023-01-05T19:23:29.493Z,101287.34
2023-01-05T19:26:04.104Z,101292.09
2023-01-05T19:28:34.345Z,101295.22
2023-01-05T19:31:08.255Z,101307.34
2023-01-05T19:33:40.894Z,101308.81
2023-01-05T19:36:13.497Z,101309.78
2023-01-05T19:38:43.560Z,101303.34
2023-01-05T19:41:15.610Z,101304.56
2023-01-05T19:43:45.274Z,101308.00
2023-01-05T19:46:16.761Z,101295.72
2023-01-05T19:48:49.712Z,101298.69
2023-01-05T19:51:22.430Z,101280.31
2023-01-05T19:53:55.548Z,101282.94
2023-01-05T19:56:26.378Z,101286.69
2023-01-05T19:58:57.522Z,101304.66
2023-01-05T20:01:29.396Z,101318.97
2023-01-05T20:04:01.422Z,101357.56
2023-01-05T20:06:32.784Z,101381.53
2023-01-05T20:09:04.893Z,101408.53
2023-01-05T20:11:39.541Z,101415.19
2023-01-05T20:14:10.699Z,101421.22
2023-01-05T20:16:40.288Z,101420.13
2023-01-05T20:19:14.130Z,101421.16
2023-01-05T20:21:43.795Z,101429.00
2023-01-05T20:24:17.459Z,101436.72
2023-01-05T20:26:48.211Z,101437.97
2023-01-05T20:29:19.248Z,101443.81
2023-01-05T20:31:50.868Z,101446.69
2023-01-05T20:34:28.095Z,101453.53
2023-01-05T20:36:57.553Z,101447.56
2023-01-05T20:39:27.355Z,101445.34
2023-01-05T20:42:04.593Z,101444.00
2023-01-05T20:44:36.763Z,101452.00
2023-01-05T20:47:06.989Z,101455.53
2023-01-05T20:49:40.319Z,101465.91
2023-01-05T20:52:11.703Z,101461.53
2023-01-05T20:54:41.709Z,101453.34
2023-01-05T20:57:11.507Z,101464.75
2023-01-05T20:59:42.173Z,101469.66
2023-01-05T21:02:24.248Z,101470.31
2023-01-05T21:04:57.010Z,101470.38
2023-01-05T21:07:26.433Z,101468.06
2023-01-05T21:09:56.124Z,101477.19
2023-01-05T21:12:25.650Z,101467.91
2023-01-05T21:14:55.257Z,101462.75
2023-01-05T21:17:24.968Z,101468.34
2023-01-05T21:19:58.572Z,101456.94
2023-01-05T21:22:28.086Z,101458.81
2023-01-05T21:24:57.616Z,101447.72
2023-01-05T21:27:27.088Z,101438.69
2023-01-05T21:29:56.957Z,101443.38
2023-01-05T21:32:27.427Z,101438.16
2023-01-05T21:34:59.476Z,101433.25
2023-01-05T21:37:31.507Z,101444.31
2023-01-05T21:40:02.255Z,101433.56
2023-01-05T21:42:45.278Z,101421.16
2023-01-05T21:45:15.508Z,101422.03
2023-01-05T21:47:44.886Z,101423.97
2023-01-05T21:50:37.770Z,101424.00
2023-01-05T21:53:31.994Z,101425.34
2023-01-05T21:56:14.015Z,101416.78
2023-01-05T21:58:43.719Z,101405.78
2023-01-05T22:01:13.312Z,101389.00
2023-01-05T22:03:42.848Z,101386.34
2023-01-05T22:06:14.923Z,101376.50
2023-01-05T22:08:44.585Z,101371.19
2023-01-05T22:11:14.461Z,101364.22
2023-01-05T22:13:43.913Z,101371.19
2023-01-05T22:16:13.490Z,101365.22
2023-01-05T22:18:43.069Z,101360.97
2023-01-05T22:21:15.138Z,101346.00
2023-01-05T22:23:44.587Z,101349.19
2023-01-05T22:26:16.158Z,101352.53
2023-01-05T22:28:47.414Z,101343.69
2023-01-05T22:31:20.716Z,101332.72
2023-01-05T22:33:52.156Z,101333.63
2023-01-05T22:36:25.538Z,101335.28
2023-01-05T22:38:55.643Z,101317.56
2023-01-05T22:41:26.836Z,101306.19
2023-01-05T22:43:56.596Z,101308.28
2023-01-05T22:46:30.725Z,101303.09
2023-01-05T22:49:01.124Z,101305.34
2023-01-05T22:51:35.329Z,101299.09
2023-01-05T22:54:06.655Z,101289.16
2023-01-05T22:56:37.415Z,101288.94
2023-01-05T22:59:07.295Z,101288.34
2023-01-05T23:01:38.869Z,101276.88
2023-01-05T23:04:09.417Z,101284.81
2023-01-05T23:06:41.468Z,101282.13
2023-01-05T23:09:13.674Z,101280.16
2023-01-05T23:11:46.219Z,101274.88
2023-01-05T23:14:18.472Z,101266.19
2023-01-05T23:16:48.336Z,101256.94
2023-01-05T23:19:18.243Z,101270.47
2023-01-05T23:21:50.303Z,101262.47
2023-01-05T23:24:19.793Z,101265.13
2023-01-05T23:26:49.268Z,101256.44
2023-01-05T23:29:19.852Z,101257.22
2023-01-05T23:31:49.393Z,101253.88
2023-01-05T23:34:20.094Z,101246.44
2023-01-05T23:36:52.376Z,101247.91
2023-01-05T23:39:21.914Z,101234.75
2023-01-05T23:41:51.403Z,101231.09
2023-01-05T23:44:20.927Z,101236.75
2023-01-05T23:46:51.458Z,101236.19
2023-01-05T23:49:20.955Z,101240.66
2023-01-05T23:51:52.999Z,101244.00
2023-01-05T23:54:22.472Z,101244.00
2023-01-05T23:56:51.866Z,101234.88
2023-01-05T23:59:21.312Z,101236.19
